sensor_id;sensor_type;location;lat;lon;timestamp;P1;durP1;ratioP1;P2;durP2;ratioP2
78555;SDS011;67851;51.354;7.744;2023-12-28T00:02:13;3.40;;;2.00;;
78555;SDS011;67851;51.354;7.744;2023-12-28T00:04:41;2.45;;;1.58;;
78555;SDS011;67851;51.354;7.744;2023-12-28T00:07:08;4.22;;;1.80;;
78555;SDS011;67851;51.354;7.744;2023-12-28T00:09:34;4.43;;;2.08;;
78555;SDS011;67851;51.354;7.744;2023-12-28T00:12:01;7.35;;;2.40;;
78555;SDS011;67851;51.354;7.744;2023-12-28T00:14:28;6.70;;;2.33;;
78555;SDS011;67851;51.354;7.744;2023-12-28T00:16:55;5.03;;;2.38;;
78555;SDS011;67851;51.354;7.744;2023-12-28T00:19:22;5.47;;;2.22;;
78555;SDS011;67851;51.354;7.744;2023-12-28T00:21:49;4.97;;;2.30;;
78555;SDS011;67851;51.354;7.744;2023-12-28T00:24:19;3.17;;;1.90;;
78555;SDS011;67851;51.354;7.744;2023-12-28T00:26:46;2.92;;;2.10;;
78555;SDS011;67851;51.354;7.744;2023-12-28T00:29:13;4.78;;;2.50;;
78555;SDS011;67851;51.354;7.744;2023-12-28T00:31:40;6.85;;;2.90;;
78555;SDS011;67851;51.354;7.744;2023-12-28T00:34:09;4.63;;;2.53;;
78555;SDS011;67851;51.354;7.744;2023-12-28T00:36:36;5.75;;;3.08;;
78555;SDS011;67851;51.354;7.744;2023-12-28T00:39:02;5.22;;;2.90;;
78555;SDS011;67851;51.354;7.744;2023-12-28T00:41:29;5.43;;;2.75;;
78555;SDS011;67851;51.354;7.744;2023-12-28T00:43:56;6.55;;;2.78;;
78555;SDS011;67851;51.354;7.744;2023-12-28T00:46:22;4.15;;;2.47;;
78555;SDS011;67851;51.354;7.744;2023-12-28T00:48:49;7.45;;;2.80;;
78555;SDS011;67851;51.354;7.744;2023-12-28T00:51:17;6.65;;;3.10;;
78555;SDS011;67851;51.354;7.744;2023-12-28T00:53:44;7.15;;;3.22;;
78555;SDS011;67851;51.354;7.744;2023-12-28T00:56:10;5.43;;;3.20;;
78555;SDS011;67851;51.354;7.744;2023-12-28T00:58:40;6.80;;;2.90;;
78555;SDS011;67851;51.354;7.744;2023-12-28T01:01:09;6.43;;;3.30;;
78555;SDS011;67851;51.354;7.744;2023-12-28T01:03:38;6.47;;;2.90;;
78555;SDS011;67851;51.354;7.744;2023-12-28T01:06:05;5.03;;;3.00;;
78555;SDS011;67851;51.354;7.744;2023-12-28T01:08:33;7.10;;;3.45;;
78555;SDS011;67851;51.354;7.744;2023-12-28T01:11:02;6.53;;;2.40;;
78555;SDS011;67851;51.354;7.744;2023-12-28T01:13:30;6.55;;;3.50;;
78555;SDS011;67851;51.354;7.744;2023-12-28T01:15:57;5.72;;;3.13;;
78555;SDS011;67851;51.354;7.744;2023-12-28T01:18:24;7.88;;;3.42;;
78555;SDS011;67851;51.354;7.744;2023-12-28T01:20:51;9.85;;;3.28;;
78555;SDS011;67851;51.354;7.744;2023-12-28T01:23:17;7.53;;;3.53;;
78555;SDS011;67851;51.354;7.744;2023-12-28T01:25:44;6.40;;;3.60;;
78555;SDS011;67851;51.354;7.744;2023-12-28T01:28:11;6.88;;;3.03;;
78555;SDS011;67851;51.354;7.744;2023-12-28T01:30:38;8.27;;;3.58;;
78555;SDS011;67851;51.354;7.744;2023-12-28T01:33:04;7.28;;;3.58;;
78555;SDS011;67851;51.354;7.744;2023-12-28T01:35:31;6.75;;;3.70;;
78555;SDS011;67851;51.354;7.744;2023-12-28T01:37:58;6.80;;;3.42;;
78555;SDS011;67851;51.354;7.744;2023-12-28T01:40:26;8.85;;;3.25;;
78555;SDS011;67851;51.354;7.744;2023-12-28T01:42:53;7.18;;;3.55;;
78555;SDS011;67851;51.354;7.744;2023-12-28T01:45:21;8.18;;;4.20;;
78555;SDS011;67851;51.354;7.744;2023-12-28T01:47:47;5.78;;;3.20;;
78555;SDS011;67851;51.354;7.744;2023-12-28T01:50:15;5.70;;;3.20;;
78555;SDS011;67851;51.354;7.744;2023-12-28T01:52:42;8.48;;;3.05;;
78555;SDS011;67851;51.354;7.744;2023-12-28T01:55:11;4.30;;;2.70;;
78555;SDS011;67851;51.354;7.744;2023-12-28T01:57:38;6.30;;;3.40;;
78555;SDS011;67851;51.354;7.744;2023-12-28T02:00:05;8.70;;;3.35;;
78555;SDS011;67851;51.354;7.744;2023-12-28T02:02:40;6.60;;;3.40;;
78555;SDS011;67851;51.354;7.744;2023-12-28T02:05:08;5.05;;;2.90;;
78555;SDS011;67851;51.354;7.744;2023-12-28T02:07:38;6.30;;;3.38;;
78555;SDS011;67851;51.354;7.744;2023-12-28T02:10:05;5.70;;;3.42;;
78555;SDS011;67851;51.354;7.744;2023-12-28T02:12:32;8.52;;;3.70;;
78555;SDS011;67851;51.354;7.744;2023-12-28T02:14:59;6.07;;;3.63;;
78555;SDS011;67851;51.354;7.744;2023-12-28T02:20:11;6.00;;;3.15;;
78555;SDS011;67851;51.354;7.744;2023-12-28T02:22:39;6.90;;;2.88;;
78555;SDS011;67851;51.354;7.744;2023-12-28T02:25:07;4.40;;;2.75;;
78555;SDS011;67851;51.354;7.744;2023-12-28T02:27:41;4.40;;;3.08;;
78555;SDS011;67851;51.354;7.744;2023-12-28T02:30:13;5.40;;;3.10;;
78555;SDS011;67851;51.354;7.744;2023-12-28T02:32:55;3.50;;;2.88;;
78555;SDS011;67851;51.354;7.744;2023-12-28T02:35:42;4.53;;;2.63;;
78555;SDS011;67851;51.354;7.744;2023-12-28T02:38:10;6.03;;;3.22;;
78555;SDS011;67851;51.354;7.744;2023-12-28T02:40:41;5.80;;;2.80;;
78555;SDS011;67851;51.354;7.744;2023-12-28T02:43:11;6.30;;;2.85;;
78555;SDS011;67851;51.354;7.744;2023-12-28T02:45:38;5.18;;;2.95;;
78555;SDS011;67851;51.354;7.744;2023-12-28T02:48:06;4.70;;;3.03;;
78555;SDS011;67851;51.354;7.744;2023-12-28T02:50:34;5.60;;;2.83;;
78555;SDS011;67851;51.354;7.744;2023-12-28T02:53:00;4.20;;;3.13;;
78555;SDS011;67851;51.354;7.744;2023-12-28T02:55:27;7.30;;;3.00;;
78555;SDS011;67851;51.354;7.744;2023-12-28T02:57:55;9.05;;;3.55;;
78555;SDS011;67851;51.354;7.744;2023-12-28T03:00:27;4.78;;;2.95;;
78555;SDS011;67851;51.354;7.744;2023-12-28T03:02:54;4.03;;;2.72;;
78555;SDS011;67851;51.354;7.744;2023-12-28T03:05:21;7.13;;;3.42;;
78555;SDS011;67851;51.354;7.744;2023-12-28T03:07:48;5.05;;;2.60;;
78555;SDS011;67851;51.354;7.744;2023-12-28T03:10:15;3.90;;;2.70;;
78555;SDS011;67851;51.354;7.744;2023-12-28T03:12:42;9.48;;;2.72;;
78555;SDS011;67851;51.354;7.744;2023-12-28T03:15:08;5.47;;;2.65;;
78555;SDS011;67851;51.354;7.744;2023-12-28T03:17:35;4.82;;;2.30;;
78555;SDS011;67851;51.354;7.744;2023-12-28T03:20:03;5.40;;;2.70;;
78555;SDS011;67851;51.354;7.744;2023-12-28T03:22:32;2.65;;;2.25;;
78555;SDS011;67851;51.354;7.744;2023-12-28T03:24:59;4.57;;;2.20;;
78555;SDS011;67851;51.354;7.744;2023-12-28T03:27:26;5.32;;;2.60;;
78555;SDS011;67851;51.354;7.744;2023-12-28T03:29:54;6.07;;;2.33;;
78555;SDS011;67851;51.354;7.744;2023-12-28T03:32:20;3.88;;;2.45;;
78555;SDS011;67851;51.354;7.744;2023-12-28T03:34:49;6.20;;;3.08;;
78555;SDS011;67851;51.354;7.744;2023-12-28T03:37:15;5.75;;;2.22;;
78555;SDS011;67851;51.354;7.744;2023-12-28T03:39:42;3.60;;;2.00;;
78555;SDS011;67851;51.354;7.744;2023-12-28T03:42:09;3.92;;;2.10;;
78555;SDS011;67851;51.354;7.744;2023-12-28T03:44:36;3.60;;;1.90;;
78555;SDS011;67851;51.354;7.744;2023-12-28T03:47:02;3.75;;;2.10;;
78555;SDS011;67851;51.354;7.744;2023-12-28T03:49:29;4.63;;;2.30;;
78555;SDS011;67851;51.354;7.744;2023-12-28T03:51:56;4.13;;;2.53;;
78555;SDS011;67851;51.354;7.744;2023-12-28T03:54:23;5.53;;;2.08;;
78555;SDS011;67851;51.354;7.744;2023-12-28T03:56:50;4.60;;;2.22;;
78555;SDS011;67851;51.354;7.744;2023-12-28T03:59:17;5.93;;;2.50;;
78555;SDS011;67851;51.354;7.744;2023-12-28T04:01:44;3.47;;;2.03;;
78555;SDS011;67851;51.354;7.744;2023-12-28T04:04:11;6.60;;;2.75;;
78555;SDS011;67851;51.354;7.744;2023-12-28T04:06:38;3.63;;;1.90;;
78555;SDS011;67851;51.354;7.744;2023-12-28T04:09:05;3.58;;;2.33;;
78555;SDS011;67851;51.354;7.744;2023-12-28T04:11:32;3.22;;;2.40;;
78555;SDS011;67851;51.354;7.744;2023-12-28T04:13:58;7.05;;;2.08;;
78555;SDS011;67851;51.354;7.744;2023-12-28T04:16:25;3.75;;;2.35;;
78555;SDS011;67851;51.354;7.744;2023-12-28T04:18:52;3.03;;;2.10;;
78555;SDS011;67851;51.354;7.744;2023-12-28T04:21:18;6.00;;;2.20;;
78555;SDS011;67851;51.354;7.744;2023-12-28T04:23:45;6.20;;;2.42;;
78555;SDS011;67851;51.354;7.744;2023-12-28T04:26:12;3.72;;;2.33;;
78555;SDS011;67851;51.354;7.744;2023-12-28T04:28:39;4.55;;;2.30;;
78555;SDS011;67851;51.354;7.744;2023-12-28T04:31:06;4.45;;;2.38;;
78555;SDS011;67851;51.354;7.744;2023-12-28T04:33:33;4.15;;;2.30;;
78555;SDS011;67851;51.354;7.744;2023-12-28T04:36:04;2.67;;;2.08;;
78555;SDS011;67851;51.354;7.744;2023-12-28T04:38:32;4.35;;;2.30;;
78555;SDS011;67851;51.354;7.744;2023-12-28T04:40:59;6.25;;;2.30;;
78555;SDS011;67851;51.354;7.744;2023-12-28T04:43:27;5.75;;;2.78;;
78555;SDS011;67851;51.354;7.744;2023-12-28T04:45:53;4.18;;;2.40;;
78555;SDS011;67851;51.354;7.744;2023-12-28T04:48:20;5.07;;;2.33;;
78555;SDS011;67851;51.354;7.744;2023-12-28T04:50:51;4.57;;;2.00;;
78555;SDS011;67851;51.354;7.744;2023-12-28T04:53:19;6.45;;;2.03;;
78555;SDS011;67851;51.354;7.744;2023-12-28T04:55:45;4.97;;;2.55;;
78555;SDS011;67851;51.354;7.744;2023-12-28T04:58:12;6.35;;;2.53;;
78555;SDS011;67851;51.354;7.744;2023-12-28T05:00:39;3.70;;;2.22;;
78555;SDS011;67851;51.354;7.744;2023-12-28T05:03:06;3.30;;;2.17;;
78555;SDS011;67851;51.354;7.744;2023-12-28T05:05:33;5.82;;;2.90;;
78555;SDS011;67851;51.354;7.744;2023-12-28T05:08:00;2.58;;;1.92;;
78555;SDS011;67851;51.354;7.744;2023-12-28T05:10:27;3.35;;;2.15;;
78555;SDS011;67851;51.354;7.744;2023-12-28T05:12:54;3.92;;;2.35;;
78555;SDS011;67851;51.354;7.744;2023-12-28T05:15:27;4.88;;;2.45;;
78555;SDS011;67851;51.354;7.744;2023-12-28T05:17:55;4.30;;;2.13;;
78555;SDS011;67851;51.354;7.744;2023-12-28T05:20:24;6.68;;;2.40;;
78555;SDS011;67851;51.354;7.744;2023-12-28T05:22:50;6.10;;;2.40;;
78555;SDS011;67851;51.354;7.744;2023-12-28T05:25:17;4.40;;;2.58;;
78555;SDS011;67851;51.354;7.744;2023-12-28T05:27:43;3.83;;;2.28;;
78555;SDS011;67851;51.354;7.744;2023-12-28T05:30:10;7.18;;;2.40;;
78555;SDS011;67851;51.354;7.744;2023-12-28T05:32:38;6.15;;;2.58;;
78555;SDS011;67851;51.354;7.744;2023-12-28T05:35:05;6.40;;;2.20;;
78555;SDS011;67851;51.354;7.744;2023-12-28T05:37:32;5.80;;;2.63;;
78555;SDS011;67851;51.354;7.744;2023-12-28T05:39:59;4.05;;;2.30;;
78555;SDS011;67851;51.354;7.744;2023-12-28T05:42:27;4.65;;;2.30;;
78555;SDS011;67851;51.354;7.744;2023-12-28T05:44:54;6.35;;;2.30;;
78555;SDS011;67851;51.354;7.744;2023-12-28T05:47:20;4.00;;;2.53;;
78555;SDS011;67851;51.354;7.744;2023-12-28T05:49:47;4.15;;;2.30;;
78555;SDS011;67851;51.354;7.744;2023-12-28T05:52:13;4.35;;;2.17;;
78555;SDS011;67851;51.354;7.744;2023-12-28T05:54:42;4.68;;;2.60;;
78555;SDS011;67851;51.354;7.744;2023-12-28T05:57:10;6.28;;;2.50;;
78555;SDS011;67851;51.354;7.744;2023-12-28T05:59:40;3.85;;;2.30;;
78555;SDS011;67851;51.354;7.744;2023-12-28T06:02:06;5.65;;;2.22;;
78555;SDS011;67851;51.354;7.744;2023-12-28T06:04:33;3.42;;;2.28;;
78555;SDS011;67851;51.354;7.744;2023-12-28T06:07:04;4.70;;;1.90;;
78555;SDS011;67851;51.354;7.744;2023-12-28T06:09:31;6.07;;;2.92;;
78555;SDS011;67851;51.354;7.744;2023-12-28T06:11:59;4.50;;;2.25;;
78555;SDS011;67851;51.354;7.744;2023-12-28T06:14:26;5.95;;;2.25;;
78555;SDS011;67851;51.354;7.744;2023-12-28T06:16:53;5.43;;;2.08;;
78555;SDS011;67851;51.354;7.744;2023-12-28T06:19:20;5.68;;;2.65;;
78555;SDS011;67851;51.354;7.744;2023-12-28T06:21:48;6.55;;;2.83;;
78555;SDS011;67851;51.354;7.744;2023-12-28T06:24:15;4.82;;;2.05;;
78555;SDS011;67851;51.354;7.744;2023-12-28T06:26:42;2.83;;;1.77;;
78555;SDS011;67851;51.354;7.744;2023-12-28T06:29:09;6.05;;;2.42;;
78555;SDS011;67851;51.354;7.744;2023-12-28T06:31:36;4.97;;;2.13;;
78555;SDS011;67851;51.354;7.744;2023-12-28T06:34:03;6.82;;;1.92;;
78555;SDS011;67851;51.354;7.744;2023-12-28T06:36:31;7.07;;;2.30;;
78555;SDS011;67851;51.354;7.744;2023-12-28T06:38:58;6.70;;;2.42;;
78555;SDS011;67851;51.354;7.744;2023-12-28T06:42:14;7.65;;;2.60;;
78555;SDS011;67851;51.354;7.744;2023-12-28T06:45:45;5.47;;;2.22;;
78555;SDS011;67851;51.354;7.744;2023-12-28T06:48:13;5.35;;;2.33;;
78555;SDS011;67851;51.354;7.744;2023-12-28T06:50:39;4.93;;;1.98;;
78555;SDS011;67851;51.354;7.744;2023-12-28T06:53:06;5.35;;;2.35;;
78555;SDS011;67851;51.354;7.744;2023-12-28T06:55:33;7.32;;;2.67;;
78555;SDS011;67851;51.354;7.744;2023-12-28T06:58:00;9.15;;;2.55;;
78555;SDS011;67851;51.354;7.744;2023-12-28T07:00:28;4.22;;;2.25;;
78555;SDS011;67851;51.354;7.744;2023-12-28T07:02:54;5.30;;;2.58;;
78555;SDS011;67851;51.354;7.744;2023-12-28T07:05:21;4.10;;;2.55;;
78555;SDS011;67851;51.354;7.744;2023-12-28T07:07:48;3.60;;;2.60;;
78555;SDS011;67851;51.354;7.744;2023-12-28T07:10:14;7.28;;;2.95;;
78555;SDS011;67851;51.354;7.744;2023-12-28T07:12:41;3.90;;;2.42;;
78555;SDS011;67851;51.354;7.744;2023-12-28T07:15:08;5.07;;;2.58;;
78555;SDS011;67851;51.354;7.744;2023-12-28T07:17:39;5.80;;;2.60;;
78555;SDS011;67851;51.354;7.744;2023-12-28T07:20:07;6.45;;;2.95;;
78555;SDS011;67851;51.354;7.744;2023-12-28T07:22:37;6.00;;;2.97;;
78555;SDS011;67851;51.354;7.744;2023-12-28T07:25:05;4.22;;;2.38;;
78555;SDS011;67851;51.354;7.744;2023-12-28T07:27:32;9.35;;;3.20;;
78555;SDS011;67851;51.354;7.744;2023-12-28T07:30:03;5.53;;;2.90;;
78555;SDS011;67851;51.354;7.744;2023-12-28T07:32:31;9.75;;;2.88;;
78555;SDS011;67851;51.354;7.744;2023-12-28T07:34:57;4.60;;;2.38;;
78555;SDS011;67851;51.354;7.744;2023-12-28T07:37:25;6.43;;;2.80;;
78555;SDS011;67851;51.354;7.744;2023-12-28T07:39:52;5.07;;;2.92;;
78555;SDS011;67851;51.354;7.744;2023-12-28T07:42:19;5.85;;;2.70;;
78555;SDS011;67851;51.354;7.744;2023-12-28T07:44:46;9.05;;;3.25;;
78555;SDS011;67851;51.354;7.744;2023-12-28T07:47:12;5.18;;;2.63;;
78555;SDS011;67851;51.354;7.744;2023-12-28T07:49:39;7.47;;;3.78;;
78555;SDS011;67851;51.354;7.744;2023-12-28T07:52:08;5.18;;;3.08;;
78555;SDS011;67851;51.354;7.744;2023-12-28T07:54:34;6.70;;;2.65;;
78555;SDS011;67851;51.354;7.744;2023-12-28T07:57:01;6.85;;;2.63;;
78555;SDS011;67851;51.354;7.744;2023-12-28T07:59:28;8.43;;;3.03;;
78555;SDS011;67851;51.354;7.744;2023-12-28T08:01:55;6.00;;;3.00;;
78555;SDS011;67851;51.354;7.744;2023-12-28T08:04:22;5.53;;;2.50;;
78555;SDS011;67851;51.354;7.744;2023-12-28T08:06:49;6.43;;;2.90;;
78555;SDS011;67851;51.354;7.744;2023-12-28T08:09:16;10.07;;;2.75;;
78555;SDS011;67851;51.354;7.744;2023-12-28T08:11:43;3.88;;;2.17;;
78555;SDS011;67851;51.354;7.744;2023-12-28T08:14:09;8.35;;;3.00;;
78555;SDS011;67851;51.354;7.744;2023-12-28T08:16:36;6.85;;;2.50;;
78555;SDS011;67851;51.354;7.744;2023-12-28T08:19:03;6.95;;;2.80;;
78555;SDS011;67851;51.354;7.744;2023-12-28T08:21:30;6.65;;;2.35;;
78555;SDS011;67851;51.354;7.744;2023-12-28T08:23:57;7.57;;;2.63;;
78555;SDS011;67851;51.354;7.744;2023-12-28T08:26:24;6.45;;;2.50;;
78555;SDS011;67851;51.354;7.744;2023-12-28T08:28:51;6.65;;;2.88;;
78555;SDS011;67851;51.354;7.744;2023-12-28T08:31:18;6.13;;;2.20;;
78555;SDS011;67851;51.354;7.744;2023-12-28T08:33:45;5.63;;;2.85;;
78555;SDS011;67851;51.354;7.744;2023-12-28T08:36:12;11.98;;;2.92;;
78555;SDS011;67851;51.354;7.744;2023-12-28T08:38:38;4.93;;;2.17;;
78555;SDS011;67851;51.354;7.744;2023-12-28T08:41:05;5.38;;;2.17;;
78555;SDS011;67851;51.354;7.744;2023-12-28T08:43:35;6.72;;;2.20;;
78555;SDS011;67851;51.354;7.744;2023-12-28T08:46:02;3.90;;;1.85;;
78555;SDS011;67851;51.354;7.744;2023-12-28T08:48:29;7.13;;;2.33;;
78555;SDS011;67851;51.354;7.744;2023-12-28T08:50:56;8.63;;;2.17;;
78555;SDS011;67851;51.354;7.744;2023-12-28T08:53:22;8.15;;;2.30;;
78555;SDS011;67851;51.354;7.744;2023-12-28T08:55:49;6.15;;;2.22;;
78555;SDS011;67851;51.354;7.744;2023-12-28T08:58:16;5.88;;;2.33;;
78555;SDS011;67851;51.354;7.744;2023-12-28T09:00:43;6.15;;;1.88;;
78555;SDS011;67851;51.354;7.744;2023-12-28T09:03:11;5.38;;;2.10;;
78555;SDS011;67851;51.354;7.744;2023-12-28T09:05:38;7.10;;;2.30;;
78555;SDS011;67851;51.354;7.744;2023-12-28T09:08:05;9.18;;;2.35;;
78555;SDS011;67851;51.354;7.744;2023-12-28T09:10:32;10.73;;;2.33;;
78555;SDS011;67851;51.354;7.744;2023-12-28T09:13:00;5.05;;;2.20;;
78555;SDS011;67851;51.354;7.744;2023-12-28T09:15:27;3.50;;;1.98;;
78555;SDS011;67851;51.354;7.744;2023-12-28T09:17:55;5.72;;;1.90;;
78555;SDS011;67851;51.354;7.744;2023-12-28T09:20:21;6.57;;;1.95;;
78555;SDS011;67851;51.354;7.744;2023-12-28T09:22:48;5.03;;;1.80;;
78555;SDS011;67851;51.354;7.744;2023-12-28T09:25:19;4.55;;;1.90;;
78555;SDS011;67851;51.354;7.744;2023-12-28T09:27:46;5.88;;;2.15;;
78555;SDS011;67851;51.354;7.744;2023-12-28T09:30:13;10.35;;;2.10;;
78555;SDS011;67851;51.354;7.744;2023-12-28T09:32:40;6.95;;;2.00;;
78555;SDS011;67851;51.354;7.744;2023-12-28T09:35:07;5.90;;;1.63;;
78555;SDS011;67851;51.354;7.744;2023-12-28T09:37:34;10.52;;;2.17;;
78555;SDS011;67851;51.354;7.744;2023-12-28T09:40:00;4.72;;;1.95;;
78555;SDS011;67851;51.354;7.744;2023-12-28T09:42:29;8.80;;;1.98;;
78555;SDS011;67851;51.354;7.744;2023-12-28T09:45:17;8.77;;;2.75;;
78555;SDS011;67851;51.354;7.744;2023-12-28T09:47:44;5.20;;;1.90;;
78555;SDS011;67851;51.354;7.744;2023-12-28T09:50:12;5.55;;;1.80;;
78555;SDS011;67851;51.354;7.744;2023-12-28T09:52:39;9.32;;;1.90;;
78555;SDS011;67851;51.354;7.744;2023-12-28T09:55:06;4.75;;;1.73;;
78555;SDS011;67851;51.354;7.744;2023-12-28T09:57:33;6.22;;;1.83;;
78555;SDS011;67851;51.354;7.744;2023-12-28T10:00:02;6.20;;;2.15;;
78555;SDS011;67851;51.354;7.744;2023-12-28T10:02:37;7.50;;;1.77;;
78555;SDS011;67851;51.354;7.744;2023-12-28T10:05:06;9.63;;;2.10;;
78555;SDS011;67851;51.354;7.744;2023-12-28T10:07:35;5.00;;;1.48;;
78555;SDS011;67851;51.354;7.744;2023-12-28T10:10:06;8.32;;;1.67;;
78555;SDS011;67851;51.354;7.744;2023-12-28T10:12:35;3.50;;;1.40;;
78555;SDS011;67851;51.354;7.744;2023-12-28T10:15:03;9.85;;;2.25;;
78555;SDS011;67851;51.354;7.744;2023-12-28T10:17:33;7.40;;;2.45;;
78555;SDS011;67851;51.354;7.744;2023-12-28T10:20:01;7.07;;;1.77;;
78555;SDS011;67851;51.354;7.744;2023-12-28T10:22:31;9.70;;;1.65;;
78555;SDS011;67851;51.354;7.744;2023-12-28T10:24:58;6.18;;;1.40;;
78555;SDS011;67851;51.354;7.744;2023-12-28T10:27:26;10.32;;;1.80;;
78555;SDS011;67851;51.354;7.744;2023-12-28T10:29:55;11.20;;;1.88;;
78555;SDS011;67851;51.354;7.744;2023-12-28T10:32:22;8.35;;;2.40;;
78555;SDS011;67851;51.354;7.744;2023-12-28T10:34:52;6.70;;;1.63;;
78555;SDS011;67851;51.354;7.744;2023-12-28T10:37:20;7.63;;;1.80;;
78555;SDS011;67851;51.354;7.744;2023-12-28T10:39:48;6.65;;;2.55;;
78555;SDS011;67851;51.354;7.744;2023-12-28T10:42:17;7.68;;;2.00;;
78555;SDS011;67851;51.354;7.744;2023-12-28T10:44:50;10.13;;;2.13;;
78555;SDS011;67851;51.354;7.744;2023-12-28T10:47:19;6.95;;;2.17;;
78555;SDS011;67851;51.354;7.744;2023-12-28T10:49:47;7.18;;;1.70;;
78555;SDS011;67851;51.354;7.744;2023-12-28T10:52:15;7.18;;;1.85;;
78555;SDS011;67851;51.354;7.744;2023-12-28T10:54:56;7.45;;;1.83;;
78555;SDS011;67851;51.354;7.744;2023-12-28T10:57:27;8.18;;;2.05;;
78555;SDS011;67851;51.354;7.744;2023-12-28T11:02:38;8.77;;;2.10;;
78555;SDS011;67851;51.354;7.744;2023-12-28T11:05:07;7.23;;;2.07;;
78555;SDS011;67851;51.354;7.744;2023-12-28T11:07:35;6.32;;;1.42;;
78555;SDS011;67851;51.354;7.744;2023-12-28T11:10:02;6.40;;;2.08;;
78555;SDS011;67851;51.354;7.744;2023-12-28T11:12:32;9.85;;;1.80;;
78555;SDS011;67851;51.354;7.744;2023-12-28T11:14:59;7.13;;;1.70;;
78555;SDS011;67851;51.354;7.744;2023-12-28T11:17:26;8.57;;;1.77;;
78555;SDS011;67851;51.354;7.744;2023-12-28T11:19:53;6.70;;;1.33;;
78555;SDS011;67851;51.354;7.744;2023-12-28T11:22:21;6.60;;;2.08;;
78555;SDS011;67851;51.354;7.744;2023-12-28T11:24:48;7.82;;;2.03;;
78555;SDS011;67851;51.354;7.744;2023-12-28T11:27:15;5.68;;;1.85;;
78555;SDS011;67851;51.354;7.744;2023-12-28T11:29:51;8.63;;;2.10;;
78555;SDS011;67851;51.354;7.744;2023-12-28T11:36:25;7.97;;;1.85;;
78555;SDS011;67851;51.354;7.744;2023-12-28T11:38:53;8.98;;;1.45;;
78555;SDS011;67851;51.354;7.744;2023-12-28T11:41:24;7.20;;;2.03;;
78555;SDS011;67851;51.354;7.744;2023-12-28T11:43:54;10.55;;;2.42;;
78555;SDS011;67851;51.354;7.744;2023-12-28T11:46:21;8.02;;;1.90;;
78555;SDS011;67851;51.354;7.744;2023-12-28T11:48:48;6.97;;;2.55;;
78555;SDS011;67851;51.354;7.744;2023-12-28T11:51:16;7.97;;;1.90;;
78555;SDS011;67851;51.354;7.744;2023-12-28T11:53:43;7.78;;;1.63;;
78555;SDS011;67851;51.354;7.744;2023-12-28T11:56:14;10.02;;;3.00;;
78555;SDS011;67851;51.354;7.744;2023-12-28T11:58:42;7.18;;;2.25;;
78555;SDS011;67851;51.354;7.744;2023-12-28T12:01:12;10.82;;;2.20;;
78555;SDS011;67851;51.354;7.744;2023-12-28T12:03:39;10.57;;;2.00;;
78555;SDS011;67851;51.354;7.744;2023-12-28T12:06:06;10.60;;;2.00;;
78555;SDS011;67851;51.354;7.744;2023-12-28T12:08:33;6.05;;;1.70;;
78555;SDS011;67851;51.354;7.744;2023-12-28T12:11:00;6.47;;;1.45;;
78555;SDS011;67851;51.354;7.744;2023-12-28T12:13:31;9.75;;;2.03;;
78555;SDS011;67851;51.354;7.744;2023-12-28T12:15:58;6.78;;;1.95;;
78555;SDS011;67851;51.354;7.744;2023-12-28T12:18:25;6.22;;;1.35;;
78555;SDS011;67851;51.354;7.744;2023-12-28T12:20:52;8.38;;;1.40;;
78555;SDS011;67851;51.354;7.744;2023-12-28T12:23:19;6.57;;;1.52;;
78555;SDS011;67851;51.354;7.744;2023-12-28T12:25:45;9.60;;;1.60;;
78555;SDS011;67851;51.354;7.744;2023-12-28T12:28:12;7.65;;;1.77;;
78555;SDS011;67851;51.354;7.744;2023-12-28T12:30:39;7.70;;;1.73;;
78555;SDS011;67851;51.354;7.744;2023-12-28T12:33:05;10.27;;;3.08;;
78555;SDS011;67851;51.354;7.744;2023-12-28T12:35:32;9.77;;;2.38;;
78555;SDS011;67851;51.354;7.744;2023-12-28T12:38:00;11.30;;;1.75;;
78555;SDS011;67851;51.354;7.744;2023-12-28T12:40:28;5.57;;;1.77;;
78555;SDS011;67851;51.354;7.744;2023-12-28T12:42:55;7.88;;;1.52;;
78555;SDS011;67851;51.354;7.744;2023-12-28T12:45:22;5.28;;;1.60;;
78555;SDS011;67851;51.354;7.744;2023-12-28T12:47:51;9.05;;;1.90;;
78555;SDS011;67851;51.354;7.744;2023-12-28T12:50:18;5.97;;;1.30;;
78555;SDS011;67851;51.354;7.744;2023-12-28T12:52:44;10.40;;;2.45;;
78555;SDS011;67851;51.354;7.744;2023-12-28T12:55:14;8.00;;;1.90;;
78555;SDS011;67851;51.354;7.744;2023-12-28T12:57:41;5.97;;;1.90;;
78555;SDS011;67851;51.354;7.744;2023-12-28T13:00:09;8.48;;;1.92;;
78555;SDS011;67851;51.354;7.744;2023-12-28T13:02:36;8.38;;;1.50;;
78555;SDS011;67851;51.354;7.744;2023-12-28T13:05:03;9.57;;;1.65;;
78555;SDS011;67851;51.354;7.744;2023-12-28T13:07:31;8.00;;;2.20;;
78555;SDS011;67851;51.354;7.744;2023-12-28T13:10:00;9.82;;;1.75;;
78555;SDS011;67851;51.354;7.744;2023-12-28T13:12:28;7.32;;;1.60;;
78555;SDS011;67851;51.354;7.744;2023-12-28T13:14:54;10.15;;;2.42;;
78555;SDS011;67851;51.354;7.744;2023-12-28T13:17:21;7.30;;;1.88;;
78555;SDS011;67851;51.354;7.744;2023-12-28T13:19:47;5.80;;;1.42;;
78555;SDS011;67851;51.354;7.744;2023-12-28T13:22:14;9.95;;;1.63;;
78555;SDS011;67851;51.354;7.744;2023-12-28T13:24:41;7.00;;;1.13;;
78555;SDS011;67851;51.354;7.744;2023-12-28T13:27:08;7.25;;;1.67;;
78555;SDS011;67851;51.354;7.744;2023-12-28T13:29:36;8.52;;;1.42;;
78555;SDS011;67851;51.354;7.744;2023-12-28T13:32:03;8.25;;;1.88;;
78555;SDS011;67851;51.354;7.744;2023-12-28T13:34:30;4.53;;;1.40;;
78555;SDS011;67851;51.354;7.744;2023-12-28T13:36:57;7.55;;;1.65;;
78555;SDS011;67851;51.354;7.744;2023-12-28T13:39:25;10.13;;;1.70;;
78555;SDS011;67851;51.354;7.744;2023-12-28T13:41:55;11.13;;;1.40;;
78555;SDS011;67851;51.354;7.744;2023-12-28T13:44:22;4.80;;;1.52;;
78555;SDS011;67851;51.354;7.744;2023-12-28T13:46:48;6.85;;;1.75;;
78555;SDS011;67851;51.354;7.744;2023-12-28T13:49:15;4.60;;;1.40;;
78555;SDS011;67851;51.354;7.744;2023-12-28T13:51:42;6.53;;;1.40;;
78555;SDS011;67851;51.354;7.744;2023-12-28T13:54:09;6.80;;;1.70;;
78555;SDS011;67851;51.354;7.744;2023-12-28T13:56:35;8.18;;;1.30;;
78555;SDS011;67851;51.354;7.744;2023-12-28T13:59:03;7.25;;;1.65;;
78555;SDS011;67851;51.354;7.744;2023-12-28T14:01:29;7.07;;;1.20;;
78555;SDS011;67851;51.354;7.744;2023-12-28T14:03:56;8.80;;;1.70;;
78555;SDS011;67851;51.354;7.744;2023-12-28T14:06:23;8.05;;;1.73;;
78555;SDS011;67851;51.354;7.744;2023-12-28T14:08:50;8.55;;;2.13;;
78555;SDS011;67851;51.354;7.744;2023-12-28T14:11:17;12.57;;;2.10;;
78555;SDS011;67851;51.354;7.744;2023-12-28T14:13:43;8.60;;;1.38;;
78555;SDS011;67851;51.354;7.744;2023-12-28T14:16:10;8.10;;;1.60;;
78555;SDS011;67851;51.354;7.744;2023-12-28T14:18:36;6.38;;;2.00;;
78555;SDS011;67851;51.354;7.744;2023-12-28T14:21:06;9.25;;;1.75;;
78555;SDS011;67851;51.354;7.744;2023-12-28T14:23:33;9.23;;;1.70;;
78555;SDS011;67851;51.354;7.744;2023-12-28T14:26:04;5.18;;;1.40;;
78555;SDS011;67851;51.354;7.744;2023-12-28T14:28:37;10.15;;;1.50;;
78555;SDS011;67851;51.354;7.744;2023-12-28T14:31:05;9.95;;;1.25;;
78555;SDS011;67851;51.354;7.744;2023-12-28T14:33:32;4.18;;;1.25;;
78555;SDS011;67851;51.354;7.744;2023-12-28T14:35:59;9.73;;;2.45;;
78555;SDS011;67851;51.354;7.744;2023-12-28T14:38:26;6.75;;;1.77;;
78555;SDS011;67851;51.354;7.744;2023-12-28T14:40:53;8.68;;;1.88;;
78555;SDS011;67851;51.354;7.744;2023-12-28T14:43:19;7.60;;;1.70;;
78555;SDS011;67851;51.354;7.744;2023-12-28T14:45:48;7.10;;;1.63;;
78555;SDS011;67851;51.354;7.744;2023-12-28T14:48:15;9.18;;;2.28;;
78555;SDS011;67851;51.354;7.744;2023-12-28T14:50:42;7.82;;;1.27;;
78555;SDS011;67851;51.354;7.744;2023-12-28T14:53:09;6.78;;;1.45;;
78555;SDS011;67851;51.354;7.744;2023-12-28T14:55:37;5.47;;;1.27;;
78555;SDS011;67851;51.354;7.744;2023-12-28T14:58:04;8.82;;;1.50;;
78555;SDS011;67851;51.354;7.744;2023-12-28T15:00:31;8.60;;;1.58;;
78555;SDS011;67851;51.354;7.744;2023-12-28T15:02:57;7.30;;;1.52;;